createdAt,value
2023-03-12T00:03:29.505Z,0
2023-03-12T00:04:10.037Z,0
2023-03-12T00:04:50.531Z,0
2023-03-12T00:05:31.063Z,0
2023-03-12T00:06:11.615Z,0
2023-03-12T00:06:52.163Z,0
2023-03-12T00:07:33.332Z,0
2023-03-12T00:08:14.669Z,0
2023-03-12T00:13:39.528Z,0
2023-03-12T00:14:20.842Z,0
2023-03-12T00:15:01.368Z,0
2023-03-12T00:15:42.760Z,0
2023-03-12T00:17:55.443Z,0
2023-03-12T00:18:36.662Z,0
2023-03-12T00:19:17.156Z,0
2023-03-12T00:19:58.318Z,0
2023-03-12T00:20:38.868Z,0
2023-03-12T00:21:19.410Z,0
2023-03-12T00:25:25.425Z,0
2023-03-12T00:26:05.974Z,0
2023-03-12T00:26:46.489Z,0
2023-03-12T00:27:27.044Z,0
2023-03-12T00:28:08.394Z,0
2023-03-12T00:28:48.944Z,0
2023-03-12T00:29:29.510Z,0
2023-03-12T00:30:10.053Z,0
2023-03-12T00:36:42.425Z,0
2023-03-12T00:37:22.991Z,0
2023-03-12T00:38:03.535Z,0
2023-03-12T00:38:44.089Z,0
2023-03-12T00:40:57.121Z,0
2023-03-12T00:41:37.696Z,0
2023-03-12T00:42:18.207Z,0
2023-03-12T00:42:59.297Z,0
2023-03-12T00:43:39.816Z,0
2023-03-12T00:44:20.339Z,0
2023-03-12T00:45:00.877Z,0
2023-03-12T00:45:42.153Z,0
2023-03-12T00:49:47.062Z,0
2023-03-12T00:50:28.372Z,0
2023-03-12T00:51:08.908Z,0
2023-03-12T00:51:49.428Z,0
2023-03-12T00:52:29.948Z,0
2023-03-12T00:53:10.484Z,0
2023-03-12T00:53:51.018Z,0
2023-03-12T00:54:31.529Z,0
2023-03-12T00:55:12.054Z,0
2023-03-12T01:00:37.574Z,0
2023-03-12T01:01:18.037Z,0
2023-03-12T01:01:58.574Z,0
2023-03-12T01:02:39.096Z,0
2023-03-12T01:03:19.616Z,0
2023-03-12T01:04:00.798Z,0
2023-03-12T01:04:41.299Z,0
2023-03-12T01:05:21.848Z,0
2023-03-12T01:10:16.980Z,0
2023-03-12T01:10:57.539Z,0
2023-03-12T01:11:38.059Z,0
2023-03-12T01:12:18.486Z,0
2023-03-12T01:12:59.013Z,0
2023-03-12T01:13:39.540Z,0
2023-03-12T01:14:20.037Z,0
2023-03-12T01:16:38.231Z,0
2023-03-12T01:17:18.716Z,0
2023-03-12T01:17:59.220Z,0
2023-03-12T01:18:39.729Z,0
2023-03-12T01:19:21.130Z,0
2023-03-12T01:20:01.602Z,0
2023-03-12T01:20:42.154Z,0
2023-03-12T01:21:22.743Z,0
2023-03-12T01:22:03.244Z,0
2023-03-12T01:28:05.181Z,0
2023-03-12T01:28:45.685Z,0
2023-03-12T01:29:26.199Z,0
2023-03-12T01:30:06.738Z,0
2023-03-12T01:30:47.288Z,0
2023-03-12T01:31:27.909Z,0
2023-03-12T01:32:08.400Z,0
2023-03-12T01:32:48.980Z,0
2023-03-12T01:33:29.479Z,0
2023-03-12T01:34:10.017Z,0
2023-03-12T01:39:34.917Z,0
2023-03-12T01:40:15.418Z,0
2023-03-12T01:40:55.947Z,0
2023-03-12T01:43:09.514Z,0
2023-03-12T01:43:50.011Z,0
2023-03-12T01:44:30.532Z,0
2023-03-12T01:45:11.768Z,0
2023-03-12T01:45:52.310Z,0
2023-03-12T01:46:32.803Z,0
2023-03-12T01:47:13.325Z,0
2023-03-12T01:47:53.843Z,0
2023-03-12T01:48:34.580Z,0
2023-03-12T01:54:39.266Z,0
2023-03-12T01:55:19.778Z,0
2023-03-12T01:56:01.247Z,0
2023-03-12T01:56:41.764Z,0
2023-03-12T01:57:22.267Z,0
2023-03-12T01:58:02.797Z,0
2023-03-12T01:58:43.338Z,0
2023-03-12T01:59:23.841Z,0
2023-03-12T02:00:04.479Z,0
2023-03-12T02:02:42.834Z,0
2023-03-12T02:03:23.355Z,0
2023-03-12T02:04:03.945Z,0
2023-03-12T02:04:44.381Z,0
2023-03-12T02:05:24.897Z,0
2023-03-12T02:06:05.420Z,0
2023-03-12T02:06:45.947Z,0
2023-03-12T02:07:26.501Z,0
2023-03-12T02:08:06.992Z,0
2023-03-12T02:08:47.545Z,0
2023-03-12T02:14:12.692Z,0
2023-03-12T02:14:53.195Z,0
2023-03-12T02:15:33.720Z,0
2023-03-12T02:16:14.309Z,0
2023-03-12T02:16:54.782Z,0
2023-03-12T02:17:35.308Z,0
2023-03-12T02:18:15.833Z,0
2023-03-12T02:20:33.812Z,0
2023-03-12T02:21:15.170Z,0
2023-03-12T02:21:57.106Z,0
2023-03-12T02:22:40.076Z,0
2023-03-12T02:24:38.016Z,0
2023-03-12T02:25:18.503Z,0
2023-03-12T02:25:59.006Z,0
2023-03-12T02:26:39.525Z,0
2023-03-12T02:27:20.785Z,0
2023-03-12T02:28:03.703Z,0
2023-03-12T02:30:48.366Z,0
2023-03-12T02:31:28.869Z,0
2023-03-12T02:32:09.367Z,0
2023-03-12T02:32:49.817Z,0
2023-03-12T02:33:30.290Z,0
2023-03-12T02:34:10.777Z,0
2023-03-12T02:34:51.289Z,0
2023-03-12T02:35:31.818Z,0
2023-03-12T02:36:12.400Z,0
2023-03-12T02:38:25.082Z,0
2023-03-12T02:39:06.249Z,0
2023-03-12T02:39:46.772Z,0
2023-03-12T02:40:28.033Z,0
2023-03-12T02:41:08.590Z,0
2023-03-12T02:41:49.135Z,0
2023-03-12T02:42:29.666Z,0
2023-03-12T02:43:10.158Z,0
2023-03-12T02:49:14.874Z,0
2023-03-12T02:49:55.401Z,0
2023-03-12T02:50:35.915Z,0
2023-03-12T02:51:16.446Z,0
2023-03-12T02:51:56.986Z,0
2023-03-12T02:52:37.496Z,0
2023-03-12T02:53:17.996Z,0
2023-03-12T02:53:58.523Z,0
2023-03-12T02:54:39.051Z,0
2023-03-12T02:55:19.551Z,0
2023-03-12T02:56:00.098Z,0
2023-03-12T03:02:45.304Z,0
2023-03-12T03:03:26.521Z,0
2023-03-12T03:04:07.139Z,0
2023-03-12T03:04:47.551Z,0
2023-03-12T03:05:28.068Z,0
2023-03-12T03:06:08.565Z,0
2023-03-12T03:08:23.148Z,0
2023-03-12T03:09:03.716Z,0
2023-03-12T03:09:44.228Z,0
2023-03-12T03:10:25.305Z,0
2023-03-12T03:12:59.106Z,0
2023-03-12T03:13:39.602Z,0
2023-03-12T03:14:20.156Z,0
2023-03-12T03:15:00.676Z,0
2023-03-12T03:15:41.231Z,0
2023-03-12T03:16:21.705Z,0
2023-03-12T03:17:02.172Z,0
2023-03-12T03:17:43.343Z,0
2023-03-12T03:18:23.844Z,0
2023-03-12T03:23:49.353Z,0
2023-03-12T03:24:29.824Z,0
2023-03-12T03:25:10.297Z,0
2023-03-12T03:25:50.809Z,0
2023-03-12T03:26:31.324Z,0
2023-03-12T03:27:11.846Z,0
2023-03-12T03:27:52.361Z,0
2023-03-12T03:28:32.919Z,0
2023-03-12T03:29:13.455Z,0
2023-03-12T03:29:54.894Z,0
2023-03-12T03:30:35.401Z,0
2023-03-12T03:31:15.998Z,0
2023-03-12T03:31:56.468Z,0
2023-03-12T03:32:37.026Z,0
2023-03-12T03:35:56.535Z,0
2023-03-12T03:36:36.997Z,0
2023-03-12T03:37:17.518Z,0
2023-03-12T03:37:58.050Z,0
2023-03-12T03:38:38.604Z,0
2023-03-12T03:39:19.115Z,0
2023-03-12T03:39:59.635Z,0
2023-03-12T03:40:40.156Z,0
2023-03-12T03:41:20.656Z,0
2023-03-12T03:42:01.184Z,0
2023-03-12T03:48:46.424Z,0
2023-03-12T03:49:26.964Z,0
2023-03-12T03:50:07.502Z,0
2023-03-12T03:50:48.032Z,0
2023-03-12T03:51:28.549Z,0
2023-03-12T03:52:09.060Z,0
2023-03-12T03:52:49.591Z,0
2023-03-12T03:53:30.108Z,0
2023-03-12T03:54:11.243Z,0
2023-03-12T04:00:56.578Z,0
2023-03-12T04:01:37.093Z,0
2023-03-12T04:02:17.660Z,0
2023-03-12T04:02:58.214Z,0
2023-03-12T04:03:38.757Z,0
2023-03-12T04:04:20.094Z,0
2023-03-12T04:05:00.644Z,0
2023-03-12T04:05:41.230Z,0
2023-03-12T04:12:26.392Z,0
2023-03-12T04:13:06.904Z,0
2023-03-12T04:13:47.448Z,0
2023-03-12T04:14:27.944Z,0
2023-03-12T04:15:08.458Z,0
2023-03-12T04:15:49.023Z,0
2023-03-12T04:16:29.508Z,0
2023-03-12T04:17:10.045Z,0
2023-03-12T04:17:50.741Z,0
2023-03-12T04:18:31.162Z,0
2023-03-12T04:23:56.231Z,0
2023-03-12T04:24:36.775Z,0
2023-03-12T04:25:17.329Z,0
2023-03-12T04:25:57.837Z,0
2023-03-12T04:26:38.372Z,0
2023-03-12T04:27:18.931Z,0
2023-03-12T04:27:59.445Z,0
2023-03-12T04:28:39.981Z,0
2023-03-12T04:29:20.499Z,0
2023-03-12T04:30:01.023Z,0
2023-03-12T04:30:41.538Z,0
2023-03-12T04:36:46.326Z,0
2023-03-12T04:38:59.383Z,0
2023-03-12T04:39:39.906Z,0
2023-03-12T04:40:20.400Z,0
2023-03-12T04:41:00.931Z,0
2023-03-12T04:41:41.462Z,0
2023-03-12T04:42:21.961Z,0
2023-03-12T04:43:02.482Z,0
2023-03-12T04:43:43.875Z,0
2023-03-12T04:44:24.395Z,0
2023-03-12T04:49:49.122Z,0
2023-03-12T04:52:02.669Z,0
2023-03-12T04:52:43.183Z,0
2023-03-12T04:53:23.770Z,0
2023-03-12T04:54:04.238Z,0
2023-03-12T04:54:47.557Z,0
2023-03-12T04:55:25.284Z,0
2023-03-12T04:56:05.824Z,0
2023-03-12T04:56:46.380Z,0
2023-03-12T04:57:26.953Z,0
2023-03-12T04:58:07.468Z,0
2023-03-12T05:04:52.670Z,0
2023-03-12T05:07:05.451Z,0
2023-03-12T05:07:45.981Z,0
2023-03-12T05:08:27.117Z,0
2023-03-12T05:09:07.626Z,0
2023-03-12T05:09:48.156Z,0
2023-03-12T05:10:28.701Z,0
2023-03-12T05:11:09.171Z,0
2023-03-12T05:11:49.687Z,0
2023-03-12T05:12:30.203Z,0
2023-03-12T05:18:35.414Z,0
2023-03-12T05:19:16.751Z,0
2023-03-12T05:19:57.290Z,0
2023-03-12T05:20:37.781Z,0
2023-03-12T05:21:18.338Z,0
2023-03-12T05:21:58.875Z,4
2023-03-12T05:22:39.425Z,4
2023-03-12T05:23:19.966Z,4
2023-03-12T05:24:00.503Z,4
2023-03-12T05:30:02.598Z,12
2023-03-12T05:30:43.145Z,12
2023-03-12T05:31:24.628Z,16
2023-03-12T05:32:05.068Z,12
2023-03-12T05:32:45.718Z,16
2023-03-12T05:33:26.142Z,16
2023-03-12T05:34:06.675Z,20
2023-03-12T05:34:47.153Z,20
2023-03-12T05:35:27.690Z,20
2023-03-12T05:39:27.385Z,40
2023-03-12T05:40:07.897Z,40
2023-03-12T05:40:48.416Z,44
2023-03-12T05:41:28.942Z,44
2023-03-12T05:42:10.359Z,48
2023-03-12T05:42:50.886Z,56
2023-03-12T05:43:31.406Z,56
2023-03-12T05:44:11.929Z,64
2023-03-12T05:44:52.464Z,68
2023-03-12T05:50:57.155Z,172
2023-03-12T05:51:38.673Z,184
2023-03-12T05:52:19.200Z,192
2023-03-12T05:52:59.722Z,192
2023-03-12T05:53:40.232Z,196
2023-03-12T05:54:20.884Z,196
2023-03-12T05:55:01.438Z,200
2023-03-12T05:55:41.966Z,200
2023-03-12T06:01:47.291Z,292
2023-03-12T06:02:27.818Z,308
2023-03-12T06:03:08.317Z,316
2023-03-12T06:03:48.835Z,332
2023-03-12T06:04:29.334Z,356
2023-03-12T06:06:42.448Z,552
2023-03-12T06:07:22.944Z,576
2023-03-12T06:08:03.468Z,588
2023-03-12T06:08:43.961Z,584
2023-03-12T06:09:24.471Z,580
2023-03-12T06:10:04.981Z,588
2023-03-12T06:10:45.508Z,600
2023-03-12T06:11:26.045Z,608
2023-03-12T06:12:06.589Z,616
2023-03-12T06:12:47.081Z,632
2023-03-12T06:18:52.274Z,864
2023-03-12T06:19:32.772Z,844
2023-03-12T06:20:13.306Z,852
2023-03-12T06:20:53.824Z,872
2023-03-12T06:21:34.341Z,896
2023-03-12T06:23:48.679Z,876
2023-03-12T06:24:29.187Z,876
2023-03-12T06:25:09.726Z,880
2023-03-12T06:25:50.271Z,872
2023-03-12T06:26:30.793Z,868
2023-03-12T06:27:11.274Z,868
2023-03-12T06:27:51.816Z,868
2023-03-12T06:28:32.359Z,884
2023-03-12T06:29:12.863Z,944
2023-03-12T06:29:53.476Z,1048
2023-03-12T06:32:31.974Z,1268
2023-03-12T06:33:12.454Z,1252
2023-03-12T06:33:53.666Z,1224
2023-03-12T06:34:34.127Z,1140
2023-03-12T06:35:14.626Z,1032
2023-03-12T06:35:55.167Z,1056
2023-03-12T06:36:35.567Z,1076
2023-03-12T06:37:16.125Z,1092
2023-03-12T06:37:56.561Z,1040
2023-03-12T06:44:41.717Z,1332
2023-03-12T06:45:22.250Z,1360
2023-03-12T06:46:02.858Z,1424
2023-03-12T06:46:43.429Z,1428
2023-03-12T06:47:23.828Z,1436
2023-03-12T06:48:04.360Z,1484
2023-03-12T06:48:44.888Z,1592
2023-03-12T06:49:25.404Z,1676
2023-03-12T06:50:05.922Z,1708
2023-03-12T06:50:46.406Z,1676
2023-03-12T06:56:52.624Z,1924
2023-03-12T06:57:33.106Z,2096
2023-03-12T06:58:13.638Z,2352
2023-03-12T06:58:54.168Z,2644
2023-03-12T06:59:34.663Z,2908
2023-03-12T07:00:15.216Z,3136
2023-03-12T07:00:55.790Z,3364
2023-03-12T07:01:36.317Z,3372
2023-03-12T07:02:16.978Z,2868
2023-03-12T07:07:41.870Z,2148
2023-03-12T07:08:22.378Z,2156
2023-03-12T07:09:02.880Z,2072
2023-03-12T07:09:43.419Z,1992
2023-03-12T07:10:23.950Z,1944
2023-03-12T07:11:04.467Z,1888
2023-03-12T07:11:44.981Z,1820
2023-03-12T07:12:26.461Z,1768
2023-03-12T07:13:07.009Z,1748
2023-03-12T07:19:12.375Z,2224
2023-03-12T07:19:52.924Z,2280
2023-03-12T07:20:33.448Z,2172
2023-03-12T07:21:14.950Z,2272
2023-03-12T07:21:55.473Z,2476
2023-03-12T07:22:35.995Z,2308
2023-03-12T07:23:16.507Z,2192
2023-03-12T07:30:01.798Z,2256
2023-03-12T07:32:15.372Z,1872
2023-03-12T07:32:55.999Z,1692
2023-03-12T07:33:36.477Z,1564
2023-03-12T07:34:16.980Z,1496
2023-03-12T07:34:58.361Z,1476
2023-03-12T07:35:39.040Z,1508
2023-03-12T07:36:19.452Z,1640
2023-03-12T07:36:59.896Z,1804
2023-03-12T07:37:40.446Z,2028
2023-03-12T07:43:45.419Z,2864
2023-03-12T07:44:26.373Z,3036
2023-03-12T07:45:07.868Z,2988
2023-03-12T07:45:48.342Z,3016
2023-03-12T07:46:28.950Z,2904
2023-03-12T07:47:22.519Z,2896
2023-03-12T07:47:50.010Z,2920
2023-03-12T07:48:30.427Z,2972
2023-03-12T07:53:55.411Z,3820
2023-03-12T07:54:35.907Z,3840
2023-03-12T07:55:16.608Z,3424
2023-03-12T07:55:57.839Z,3284
2023-03-12T07:56:38.530Z,3312
2023-03-12T07:57:18.867Z,3312
2023-03-12T07:57:59.338Z,3608
2023-03-12T07:58:39.940Z,3960
2023-03-12T07:59:20.335Z,4440
2023-03-12T08:04:00.429Z,6516
2023-03-12T08:04:41.016Z,6464
2023-03-12T08:05:21.396Z,5800
2023-03-12T08:06:02.015Z,5024
2023-03-12T08:06:42.508Z,5028
2023-03-12T08:07:23.068Z,5416
2023-03-12T08:08:04.150Z,5784
2023-03-12T08:08:45.498Z,6084
2023-03-12T08:13:30.503Z,4664
2023-03-12T08:14:11.930Z,4888
2023-03-12T08:14:52.419Z,4716
2023-03-12T08:15:32.912Z,4368
2023-03-12T08:16:13.464Z,4352
2023-03-12T08:16:54.636Z,4044
2023-03-12T08:17:35.161Z,4424
2023-03-12T08:22:15.126Z,3820
2023-03-12T08:22:55.672Z,3592
2023-03-12T08:23:36.752Z,3788
2023-03-12T08:24:17.270Z,4204
2023-03-12T08:24:57.778Z,4252
2023-03-12T08:25:38.299Z,4300
2023-03-12T08:26:18.814Z,4340
2023-03-12T08:26:59.328Z,4220
2023-03-12T08:27:39.897Z,3760
2023-03-12T08:34:25.040Z,3052
2023-03-12T08:35:05.804Z,3804
2023-03-12T08:35:46.422Z,4584
2023-03-12T08:36:26.826Z,4112
2023-03-12T08:37:07.336Z,4096
2023-03-12T08:37:47.871Z,4096
2023-03-12T08:38:28.390Z,3932
2023-03-12T08:39:09.639Z,3596
2023-03-12T08:39:50.159Z,3932
2023-03-12T08:45:14.920Z,5824
2023-03-12T08:45:55.496Z,5764
2023-03-12T08:46:35.968Z,5336
2023-03-12T08:47:16.504Z,4832
2023-03-12T08:47:57.019Z,4176
2023-03-12T08:48:37.530Z,3712
2023-03-12T08:49:18.059Z,4336
2023-03-12T08:49:58.560Z,5664
2023-03-12T08:50:39.095Z,5256
2023-03-12T08:51:19.609Z,4668
2023-03-12T08:52:00.158Z,5404
2023-03-12T08:58:37.432Z,6612
2023-03-12T08:59:17.925Z,5592
2023-03-12T08:59:58.447Z,5988
2023-03-12T09:00:38.962Z,6572
2023-03-12T09:03:09.168Z,7012
2023-03-12T09:03:49.619Z,6392
2023-03-12T09:04:30.221Z,6124
2023-03-12T09:05:10.686Z,6276
2023-03-12T09:05:51.194Z,5952
2023-03-12T09:06:31.723Z,6064
2023-03-12T09:07:13.107Z,6748
2023-03-12T09:15:03.301Z,7592
2023-03-12T09:15:35.937Z,7772
2023-03-12T09:16:16.496Z,8656
2023-03-12T09:16:57.054Z,8932
2023-03-12T09:17:37.486Z,9244
2023-03-12T09:18:17.976Z,8268
2023-03-12T09:18:58.494Z,7600
2023-03-12T09:19:39.000Z,7164
2023-03-12T09:20:19.513Z,6752
2023-03-12T09:21:00.030Z,6308
2023-03-12T09:27:05.385Z,6788
2023-03-12T09:29:18.947Z,7340
2023-03-12T09:30:01.033Z,8188
2023-03-12T09:30:40.020Z,10128
2023-03-12T09:31:20.548Z,10608
2023-03-12T09:33:50.769Z,7092
2023-03-12T09:34:31.319Z,6920
2023-03-12T09:35:12.380Z,6836
2023-03-12T09:35:53.047Z,7024
2023-03-12T09:38:21.243Z,7680
2023-03-12T09:39:01.766Z,8344
2023-03-12T09:39:42.276Z,8240
2023-03-12T09:40:22.834Z,6884
2023-03-12T09:41:03.331Z,7056
2023-03-12T09:41:43.860Z,7212
2023-03-12T09:42:24.377Z,6644
2023-03-12T09:43:04.903Z,6728
2023-03-12T09:45:38.372Z,7472
2023-03-12T09:46:19.020Z,6008
2023-03-12T09:46:59.549Z,6940
2023-03-12T09:47:40.094Z,6380
2023-03-12T09:49:38.247Z,11088
2023-03-12T09:50:18.796Z,12868
2023-03-12T09:50:59.925Z,11824
2023-03-12T09:51:40.451Z,11472
2023-03-12T09:52:21.926Z,10432
2023-03-12T09:53:02.446Z,13324
2023-03-12T09:53:42.952Z,14964
2023-03-12T09:59:35.202Z,17920
2023-03-12T10:00:15.751Z,16076
2023-03-12T10:00:56.278Z,16344
2023-03-12T10:01:36.788Z,16700
2023-03-12T10:02:17.268Z,16280
2023-03-12T10:02:57.892Z,16848
2023-03-12T10:03:38.384Z,14808
2023-03-12T10:04:18.934Z,11184
2023-03-12T10:05:00.345Z,11440
2023-03-12T10:05:39.909Z,10644
2023-03-12T10:11:56.949Z,8936
2023-03-12T10:12:38.052Z,10248
2023-03-12T10:13:18.549Z,10032
2023-03-12T10:13:59.048Z,10240
2023-03-12T10:14:39.537Z,11888
2023-03-12T10:15:20.049Z,13524
2023-03-12T10:16:01.396Z,13596
2023-03-12T10:19:27.858Z,13452
2023-03-12T10:20:08.335Z,10828
2023-03-12T10:20:48.807Z,10872
2023-03-12T10:21:29.340Z,12892
2023-03-12T10:22:09.861Z,12432
2023-03-12T10:22:50.370Z,12152
2023-03-12T10:23:30.886Z,11260
2023-03-12T10:27:05.041Z,18624
2023-03-12T10:27:47.639Z,19424
2023-03-12T10:28:28.183Z,19040
2023-03-12T10:29:08.738Z,17728
2023-03-12T10:31:21.861Z,21792
2023-03-12T10:32:02.343Z,23616
2023-03-12T10:32:42.955Z,27968
2023-03-12T10:33:23.437Z,26048
2023-03-12T10:35:36.605Z,19808
2023-03-12T10:36:17.095Z,19712
2023-03-12T10:36:57.616Z,20896
2023-03-12T10:37:38.191Z,21376
2023-03-12T10:38:18.723Z,19296
2023-03-12T10:38:59.304Z,21248
2023-03-12T10:39:39.862Z,21792
2023-03-12T10:41:55.942Z,22400
2023-03-12T10:42:36.493Z,25600
2023-03-12T10:43:17.048Z,31008
2023-03-12T10:44:01.074Z,39072
2023-03-12T10:46:14.679Z,26112
2023-03-12T10:46:55.159Z,27328
2023-03-12T10:47:35.653Z,25120
2023-03-12T10:48:16.166Z,21952
2023-03-12T10:50:47.615Z,14236
2023-03-12T10:51:28.135Z,14068
2023-03-12T10:52:08.647Z,12192
2023-03-12T10:52:49.148Z,10400
2023-03-12T10:53:30.081Z,12036
2023-03-12T10:54:10.197Z,12552
2023-03-12T10:54:50.698Z,12368
2023-03-12T10:55:31.245Z,12632
2023-03-12T10:56:11.822Z,12880
2023-03-12T10:56:52.352Z,13340
2023-03-12T11:00:01.190Z,18144
2023-03-12T11:00:41.739Z,18656
2023-03-12T11:01:22.308Z,22048
2023-03-12T11:02:02.858Z,22752
2023-03-12T11:02:44.185Z,21856
2023-03-12T11:03:24.708Z,20864
2023-03-12T11:04:05.196Z,19968
2023-03-12T11:04:45.711Z,18400
2023-03-12T11:05:26.204Z,17324
2023-03-12T11:10:51.852Z,11728
2023-03-12T11:11:32.385Z,11220
2023-03-12T11:12:12.895Z,11504
2023-03-12T11:12:53.406Z,12400
2023-03-12T11:15:06.939Z,15172
2023-03-12T11:15:49.180Z,14704
2023-03-12T11:16:32.036Z,14844
2023-03-12T11:17:10.179Z,15424
2023-03-12T11:17:50.641Z,19872
2023-03-12T11:18:31.192Z,29408
2023-03-12T11:19:11.672Z,39008
2023-03-12T11:25:16.686Z,21664
2023-03-12T11:25:57.234Z,18112
2023-03-12T11:26:38.377Z,14496
2023-03-12T11:27:18.893Z,12336
2023-03-12T11:27:59.435Z,11592
2023-03-12T11:28:39.913Z,11976
2023-03-12T11:29:21.325Z,13664
2023-03-12T11:30:01.768Z,14012
2023-03-12T11:33:27.586Z,17792
2023-03-12T11:34:08.110Z,19040
2023-03-12T11:34:48.658Z,20608
2023-03-12T11:35:29.211Z,17632
2023-03-12T11:36:09.777Z,18272
2023-03-12T11:36:50.373Z,20096
2023-03-12T11:37:30.848Z,22624
2023-03-12T11:38:11.397Z,53440
2023-03-12T11:38:51.909Z,30048
2023-03-12T11:43:47.354Z,52640
2023-03-12T11:44:28.711Z,37056
2023-03-12T11:45:11.042Z,23840
2023-03-12T11:45:51.552Z,25824
2023-03-12T11:48:05.470Z,19200
2023-03-12T11:48:46.017Z,16652
2023-03-12T11:49:26.529Z,36256
2023-03-12T11:50:07.093Z,45152
2023-03-12T11:50:47.653Z,47744
2023-03-12T11:51:28.190Z,49568
2023-03-12T11:52:08.730Z,40256
2023-03-12T11:52:50.028Z,34112
2023-03-12T11:57:08.229Z,20960
2023-03-12T11:57:49.314Z,19328
2023-03-12T11:58:32.204Z,19968
2023-03-12T11:59:18.489Z,20416
2023-03-12T12:01:32.489Z,16048
2023-03-12T12:02:13.020Z,14960
2023-03-12T12:02:54.905Z,12908
2023-03-12T12:03:35.528Z,10376
2023-03-12T12:05:49.702Z,12172
2023-03-12T12:06:30.213Z,11240
2023-03-12T12:07:10.720Z,10736
2023-03-12T12:07:52.132Z,10768
2023-03-12T12:08:33.344Z,11112
2023-03-12T12:09:13.836Z,11468
2023-03-12T12:09:54.358Z,12956
2023-03-12T12:17:17.032Z,36416
2023-03-12T12:17:57.552Z,15192
2023-03-12T12:18:38.758Z,14692
2023-03-12T12:19:19.268Z,15396
2023-03-12T12:21:33.510Z,9920
2023-03-12T12:22:14.067Z,7428
2023-03-12T12:22:54.593Z,8284
2023-03-12T12:23:35.993Z,14952
2023-03-12T12:24:18.236Z,23904
2023-03-12T12:24:57.068Z,17792
2023-03-12T12:25:37.598Z,20864
2023-03-12T12:26:18.070Z,15280
2023-03-12T12:33:03.255Z,13164
2023-03-12T12:35:36.745Z,17696
2023-03-12T12:36:17.249Z,16512
2023-03-12T12:36:57.735Z,15952
2023-03-12T12:37:38.275Z,16580
2023-03-12T12:39:54.021Z,17044
2023-03-12T12:40:34.519Z,18080
2023-03-12T12:41:15.716Z,14396
2023-03-12T12:41:56.227Z,11900
2023-03-12T12:43:58.488Z,15412
2023-03-12T12:44:39.033Z,15772
2023-03-12T12:45:19.575Z,15624
2023-03-12T12:46:00.280Z,16800
2023-03-12T12:48:18.388Z,19648
2023-03-12T12:48:58.877Z,21536
2023-03-12T12:49:39.417Z,29600
2023-03-12T12:50:19.920Z,29920
2023-03-12T12:51:00.476Z,29632
2023-03-12T12:51:40.942Z,33664
2023-03-12T12:52:22.296Z,38912
2023-03-12T12:53:02.851Z,39424
2023-03-12T12:53:43.393Z,36576
2023-03-12T12:59:48.106Z,16016
2023-03-12T13:00:28.625Z,13928
2023-03-12T13:01:09.213Z,11740
2023-03-12T13:01:50.568Z,10928
2023-03-12T13:02:31.097Z,11024
2023-03-12T13:03:11.608Z,11584
2023-03-12T13:03:52.191Z,11312
2023-03-12T13:04:32.873Z,11304
2023-03-12T13:05:13.267Z,10864
2023-03-12T13:09:12.791Z,10560
2023-03-12T13:09:53.331Z,9672
2023-03-12T13:10:34.114Z,8252
2023-03-12T13:11:18.608Z,7072
2023-03-12T13:11:55.113Z,6640
2023-03-12T13:12:35.642Z,6196
2023-03-12T13:13:17.838Z,5684
2023-03-12T13:19:22.606Z,12384
2023-03-12T13:20:03.142Z,12968
2023-03-12T13:20:43.717Z,13192
2023-03-12T13:21:24.251Z,13360
2023-03-12T13:22:04.974Z,13660
2023-03-12T13:22:45.494Z,14592
2023-03-12T13:23:26.021Z,15700
2023-03-12T13:24:07.054Z,16656
2023-03-12T13:24:47.629Z,16960
2023-03-12T13:30:09.465Z,15156
2023-03-12T13:30:51.509Z,15804
2023-03-12T13:31:32.011Z,16288
2023-03-12T13:32:12.506Z,23200
2023-03-12T13:34:27.934Z,15860
2023-03-12T13:35:06.863Z,15164
2023-03-12T13:35:47.422Z,16112
2023-03-12T13:36:27.855Z,16848
2023-03-12T13:37:09.848Z,18048
2023-03-12T13:37:50.378Z,19936
2023-03-12T13:42:22.025Z,13248
2023-03-12T13:43:03.121Z,10232
2023-03-12T13:43:43.632Z,10632
2023-03-12T13:44:24.216Z,10528
2023-03-12T13:45:04.767Z,12080
2023-03-12T13:45:45.286Z,17728
2023-03-12T13:46:25.877Z,14608
2023-03-12T13:47:06.392Z,12568
2023-03-12T13:47:46.907Z,10640
2023-03-12T13:52:03.006Z,17600
2023-03-12T13:52:43.552Z,7200
2023-03-12T13:53:24.105Z,11744
2023-03-12T13:54:04.673Z,18624
2023-03-12T13:54:45.183Z,9620
2023-03-12T13:55:25.734Z,8308
2023-03-12T13:56:06.281Z,7828
2023-03-12T13:56:46.832Z,10728
2023-03-12T13:57:27.418Z,14448
2023-03-12T13:58:07.966Z,18752
2023-03-12T14:03:30.413Z,16984
2023-03-12T14:04:12.523Z,13668
2023-03-12T14:04:53.126Z,9824
2023-03-12T14:05:33.664Z,7644
2023-03-12T14:07:46.488Z,7960
2023-03-12T14:08:27.030Z,8916
2023-03-12T14:09:07.552Z,9332
2023-03-12T14:09:48.132Z,11024
2023-03-12T14:12:22.808Z,12728
2023-03-12T14:13:03.860Z,21344
2023-03-12T14:13:44.376Z,21728
2023-03-12T14:14:27.604Z,22048
2023-03-12T14:16:26.839Z,15488
2023-03-12T14:17:08.339Z,16548
2023-03-12T14:17:48.936Z,16320
2023-03-12T14:18:30.037Z,14624
2023-03-12T14:19:10.543Z,15032
2023-03-12T14:19:51.071Z,14364
2023-03-12T14:20:31.638Z,15784
2023-03-12T14:25:16.475Z,5884
2023-03-12T14:25:56.980Z,6268
2023-03-12T14:26:37.514Z,7400
2023-03-12T14:27:18.053Z,8476
2023-03-12T14:27:58.668Z,8624
2023-03-12T14:28:39.171Z,8480
2023-03-12T14:29:19.721Z,8556
2023-03-12T14:30:01.148Z,8636
2023-03-12T14:30:41.748Z,8400
2023-03-12T14:34:00.833Z,7480
2023-03-12T14:34:41.324Z,6988
2023-03-12T14:35:21.862Z,6636
2023-03-12T14:36:02.518Z,6444
2023-03-12T14:38:31.023Z,5600
2023-03-12T14:39:11.540Z,5512
2023-03-12T14:39:52.048Z,5252
2023-03-12T14:40:32.590Z,5136
2023-03-12T14:41:13.121Z,5220
2023-03-12T14:41:53.635Z,6072
2023-03-12T14:42:34.156Z,7060
2023-03-12T14:43:15.416Z,7576
2023-03-12T14:43:55.956Z,8152
2023-03-12T14:49:20.840Z,7772
2023-03-12T14:50:01.344Z,7712
2023-03-12T14:50:41.888Z,7256
2023-03-12T14:51:24.162Z,7080
2023-03-12T14:52:02.979Z,7016
2023-03-12T14:52:43.510Z,6824
2023-03-12T14:53:24.024Z,6680
2023-03-12T14:54:04.648Z,6580
2023-03-12T14:54:45.091Z,6508
2023-03-12T14:55:25.643Z,6548
2023-03-12T15:01:31.258Z,6476
2023-03-12T15:02:11.782Z,6212
2023-03-12T15:02:52.282Z,6032
2023-03-12T15:03:32.828Z,6076
2023-03-12T15:04:13.346Z,6356
2023-03-12T15:04:54.813Z,6868
2023-03-12T15:05:34.411Z,7352
2023-03-12T15:06:14.934Z,7616
2023-03-12T15:06:55.451Z,8196
2023-03-12T15:07:35.977Z,10096
2023-03-12T15:13:40.808Z,7200
2023-03-12T15:14:21.339Z,7100
2023-03-12T15:15:01.919Z,6604
2023-03-12T15:15:42.521Z,6436
2023-03-12T15:16:23.050Z,6560
2023-03-12T15:17:03.487Z,6544
2023-03-12T15:17:44.030Z,6560
2023-03-12T15:18:24.559Z,7792
2023-03-12T15:19:05.985Z,6724
2023-03-12T15:23:10.924Z,6728
2023-03-12T15:23:52.328Z,6296
2023-03-12T15:24:32.848Z,6088
2023-03-12T15:25:14.016Z,5836
2023-03-12T15:25:54.525Z,5628
2023-03-12T15:26:35.061Z,5492
2023-03-12T15:27:15.593Z,5292
2023-03-12T15:33:21.314Z,4836
2023-03-12T15:34:01.853Z,4556
2023-03-12T15:34:43.004Z,4248
2023-03-12T15:35:23.613Z,4048
2023-03-12T15:36:04.229Z,3856
2023-03-12T15:36:44.603Z,3840
2023-03-12T15:37:25.146Z,4160
2023-03-12T15:38:05.666Z,4444
2023-03-12T15:42:06.294Z,3672
2023-03-12T15:42:46.793Z,3476
2023-03-12T15:43:27.311Z,3252
2023-03-12T15:44:07.838Z,3024
2023-03-12T15:44:48.388Z,2892
2023-03-12T15:45:28.991Z,2780
2023-03-12T15:46:09.517Z,2560
2023-03-12T15:46:50.016Z,2332
2023-03-12T15:47:30.500Z,2048
2023-03-12T15:48:10.995Z,1756
2023-03-12T15:54:16.225Z,2972
2023-03-12T15:54:56.777Z,3144
2023-03-12T15:55:38.112Z,3192
2023-03-12T15:56:18.633Z,3144
2023-03-12T15:56:59.146Z,3024
2023-03-12T15:59:11.933Z,2892
2023-03-12T15:59:52.448Z,2932
2023-03-12T16:00:32.964Z,2992
2023-03-12T16:01:14.979Z,3008
2023-03-12T16:01:55.440Z,3060
2023-03-12T16:02:35.965Z,3116
2023-03-12T16:03:16.482Z,3092
2023-03-12T16:05:54.991Z,2968
2023-03-12T16:06:35.551Z,2988
2023-03-12T16:07:16.085Z,3016
2023-03-12T16:07:56.616Z,3052
2023-03-12T16:08:37.120Z,3092
2023-03-12T16:09:17.653Z,3140
2023-03-12T16:09:58.200Z,3184
2023-03-12T16:10:38.776Z,3224